sensor_id;sensor_type;location;lat;lon;timestamp;pressure;altitude;pressure_sealevel;temperature;humidity
12471;BME280;36499;46.484;13.832;2023-09-19T00:00:26;92839.44;;;18.70;100.00
12471;BME280;36499;46.484;13.832;2023-09-19T00:02:54;92848.66;;;18.73;100.00
12471;BME280;36499;46.484;13.832;2023-09-19T00:05:23;92845.22;;;18.77;100.00
12471;BME280;36499;46.484;13.832;2023-09-19T00:07:55;92848.91;;;18.76;100.00
12471;BME280;36499;46.484;13.832;2023-09-19T00:10:24;92845.22;;;18.77;100.00
12471;BME280;36499;46.484;13.832;2023-09-19T00:12:53;92850.78;;;18.76;100.00
12471;BME280;36499;46.484;13.832;2023-09-19T00:15:23;92858.97;;;18.74;100.00
12471;BME280;36499;46.484;13.832;2023-09-19T00:17:52;92852.09;;;18.73;100.00
12471;BME280;36499;46.484;13.832;2023-09-19T00:20:19;92848.41;;;18.69;100.00
12471;BME280;36499;46.484;13.832;2023-09-19T00:22:49;92855.28;;;18.70;100.00
12471;BME280;36499;46.484;13.832;2023-09-19T00:25:18;92851.84;;;18.75;100.00
12471;BME280;36499;46.484;13.832;2023-09-19T00:27:47;92844.72;;;18.75;100.00
12471;BME280;36499;46.484;13.832;2023-09-19T00:30:17;92857.66;;;18.72;100.00
12471;BME280;36499;46.484;13.832;2023-09-19T00:32:49;92855.28;;;18.70;100.00
12471;BME280;36499;46.484;13.832;2023-09-19T00:35:20;92859.78;;;18.59;100.00
12471;BME280;36499;46.484;13.832;2023-09-19T00:37:49;92862.97;;;18.51;100.00
12471;BME280;36499;46.484;13.832;2023-09-19T00:40:17;92869.56;;;18.49;100.00
12471;BME280;36499;46.484;13.832;2023-09-19T00:42:45;92859.28;;;18.52;100.00
12471;BME280;36499;46.484;13.832;2023-09-19T00:45:16;92864.03;;;18.55;100.00
12471;BME280;36499;46.484;13.832;2023-09-19T00:47:47;92860.59;;;18.60;100.00
12471;BME280;36499;46.484;13.832;2023-09-19T00:50:17;92863.22;;;18.60;100.00
12471;BME280;36499;46.484;13.832;2023-09-19T00:52:46;92870.34;;;18.59;100.00
12471;BME280;36499;46.484;13.832;2023-09-19T00:55:16;92883.31;;;18.56;100.00
12471;BME280;36499;46.484;13.832;2023-09-19T00:57:46;92865.88;;;18.55;100.00
12471;BME280;36499;46.484;13.832;2023-09-19T01:00:16;92880.13;;;18.49;100.00
12471;BME280;36499;46.484;13.832;2023-09-19T01:02:48;92863.75;;;18.21;91.17
12471;BME280;36499;46.484;13.832;2023-09-19T01:05:15;92884.06;;;18.01;85.39
12471;BME280;36499;46.484;13.832;2023-09-19T01:07:43;92893.03;;;18.20;87.58
12471;BME280;36499;46.484;13.832;2023-09-19T01:10:14;92902.78;;;18.19;91.91
12471;BME280;36499;46.484;13.832;2023-09-19T01:13:04;92914.16;;;18.20;93.56
12471;BME280;36499;46.484;13.832;2023-09-19T01:15:47;92920.22;;;18.20;94.03
12471;BME280;36499;46.484;13.832;2023-09-19T01:18:35;92934.22;;;18.21;93.10
12471;BME280;36499;46.484;13.832;2023-09-19T01:21:15;92941.31;;;17.95;92.50
12471;BME280;36499;46.484;13.832;2023-09-19T01:24:28;92948.34;;;17.74;93.54
12471;BME280;36499;46.484;13.832;2023-09-19T01:27:32;92945.41;;;17.66;93.42
12471;BME280;36499;46.484;13.832;2023-09-19T01:30:16;92951.41;;;17.51;93.78
12471;BME280;36499;46.484;13.832;2023-09-19T01:32:44;92967.16;;;17.36;95.37
12471;BME280;36499;46.484;13.832;2023-09-19T01:35:12;92958.94;;;17.22;96.45
12471;BME280;36499;46.484;13.832;2023-09-19T01:37:39;92963.94;;;17.24;97.24
12471;BME280;36499;46.484;13.832;2023-09-19T01:40:12;92967.78;;;17.06;98.36
12471;BME280;36499;46.484;13.832;2023-09-19T01:42:49;92973.50;;;16.93;98.60
12471;BME280;36499;46.484;13.832;2023-09-19T01:45:32;92978.63;;;16.73;99.20
12471;BME280;36499;46.484;13.832;2023-09-19T01:48:16;92986.50;;;16.68;98.87
12471;BME280;36499;46.484;13.832;2023-09-19T01:50:55;92994.72;;;16.76;98.39
12471;BME280;36499;46.484;13.832;2023-09-19T01:53:30;92990.03;;;16.84;97.75
12471;BME280;36499;46.484;13.832;2023-09-19T01:56:01;92993.78;;;16.93;97.78
12471;BME280;36499;46.484;13.832;2023-09-19T01:58:39;92992.47;;;16.95;98.20
12471;BME280;36499;46.484;13.832;2023-09-19T02:01:16;93003.00;;;16.95;98.39
12471;BME280;36499;46.484;13.832;2023-09-19T02:03:47;93001.19;;;17.01;98.53
12471;BME280;36499;46.484;13.832;2023-09-19T02:06:15;92997.28;;;17.03;98.37
12471;BME280;36499;46.484;13.832;2023-09-19T02:08:43;93000.44;;;17.05;98.50
12471;BME280;36499;46.484;13.832;2023-09-19T02:11:11;92992.25;;;17.02;97.68
12471;BME280;36499;46.484;13.832;2023-09-19T02:13:39;92997.75;;;16.95;98.06
12471;BME280;36499;46.484;13.832;2023-09-19T02:16:06;92992.19;;;16.92;98.54
12471;BME280;36499;46.484;13.832;2023-09-19T02:18:36;92995.59;;;16.87;99.06
12471;BME280;36499;46.484;13.832;2023-09-19T02:21:03;92986.34;;;16.85;99.43
12471;BME280;36499;46.484;13.832;2023-09-19T02:23:32;92985.84;;;16.88;99.68
12471;BME280;36499;46.484;13.832;2023-09-19T02:25:59;92987.16;;;16.90;99.78
12471;BME280;36499;46.484;13.832;2023-09-19T02:28:27;92979.25;;;16.85;99.69
12471;BME280;36499;46.484;13.832;2023-09-19T02:30:56;92979.28;;;16.90;99.91
12471;BME280;36499;46.484;13.832;2023-09-19T02:33:23;92986.41;;;16.95;99.96
12471;BME280;36499;46.484;13.832;2023-09-19T02:35:55;92985.09;;;16.92;99.50
12471;BME280;36499;46.484;13.832;2023-09-19T02:38:23;92979.25;;;16.85;98.76
12471;BME280;36499;46.484;13.832;2023-09-19T02:40:51;92985.00;;;16.77;98.69
12471;BME280;36499;46.484;13.832;2023-09-19T02:43:21;92987.63;;;16.77;98.79
12471;BME280;36499;46.484;13.832;2023-09-19T02:45:49;92980.81;;;16.81;99.60
12471;BME280;36499;46.484;13.832;2023-09-19T02:48:18;92973.72;;;16.82;100.00
12471;BME280;36499;46.484;13.832;2023-09-19T02:50:45;92973.94;;;16.80;100.00
12471;BME280;36499;46.484;13.832;2023-09-19T02:53:14;92970.03;;;16.88;99.81
12471;BME280;36499;46.484;13.832;2023-09-19T02:55:41;92974.81;;;16.91;99.19
12471;BME280;36499;46.484;13.832;2023-09-19T02:58:08;92977.47;;;16.96;99.03
12471;BME280;36499;46.484;13.832;2023-09-19T03:00:37;92973.81;;;16.97;98.74
12471;BME280;36499;46.484;13.832;2023-09-19T03:03:04;92977.22;;;16.97;98.64
12471;BME280;36499;46.484;13.832;2023-09-19T03:05:34;92975.59;;;16.91;98.63
12471;BME280;36499;46.484;13.832;2023-09-19T03:08:04;92971.94;;;16.92;98.84
12471;BME280;36499;46.484;13.832;2023-09-19T03:10:33;92960.31;;;16.93;98.73
12471;BME280;36499;46.484;13.832;2023-09-19T03:13:04;92967.94;;;16.90;98.95
12471;BME280;36499;46.484;13.832;2023-09-19T03:15:31;92963.97;;;16.87;98.84
12471;BME280;36499;46.484;13.832;2023-09-19T03:17:58;92967.38;;;16.83;99.18
12471;BME280;36499;46.484;13.832;2023-09-19T03:20:25;92964.16;;;16.75;99.75
12471;BME280;36499;46.484;13.832;2023-09-19T03:22:53;92973.38;;;16.73;99.89
12471;BME280;36499;46.484;13.832;2023-09-19T03:25:20;92959.13;;;16.69;100.00
12471;BME280;36499;46.484;13.832;2023-09-19T03:27:50;92957.00;;;16.66;100.00
12471;BME280;36499;46.484;13.832;2023-09-19T03:30:17;92966.72;;;16.65;99.98
12471;BME280;36499;46.484;13.832;2023-09-19T03:32:45;92968.13;;;16.46;100.00
12471;BME280;36499;46.484;13.832;2023-09-19T03:35:15;92981.03;;;16.48;100.00
12471;BME280;36499;46.484;13.832;2023-09-19T03:37:43;92966.59;;;16.50;100.00
12471;BME280;36499;46.484;13.832;2023-09-19T03:40:11;92967.38;;;16.51;100.00
12471;BME280;36499;46.484;13.832;2023-09-19T03:42:39;92964.19;;;16.49;100.00
12471;BME280;36499;46.484;13.832;2023-09-19T03:45:08;92958.97;;;16.54;100.00
12471;BME280;36499;46.484;13.832;2023-09-19T03:47:38;92957.38;;;16.53;100.00
12471;BME280;36499;46.484;13.832;2023-09-19T03:50:07;92948.69;;;16.47;100.00
12471;BME280;36499;46.484;13.832;2023-09-19T03:52:36;92946.56;;;16.49;99.72
12471;BME280;36499;46.484;13.832;2023-09-19T03:55:04;92948.97;;;16.51;99.64
12471;BME280;36499;46.484;13.832;2023-09-19T03:57:31;92947.91;;;16.52;99.52
12471;BME280;36499;46.484;13.832;2023-09-19T04:00:00;92952.06;;;16.48;98.94
12471;BME280;36499;46.484;13.832;2023-09-19T04:02:29;92945.19;;;16.42;99.15
12471;BME280;36499;46.484;13.832;2023-09-19T04:04:59;92950.47;;;16.42;99.12
12471;BME280;36499;46.484;13.832;2023-09-19T04:07:26;92948.03;;;16.35;99.13
12471;BME280;36499;46.484;13.832;2023-09-19T04:09:54;92949.81;;;16.24;99.10
12471;BME280;36499;46.484;13.832;2023-09-19T04:12:21;92960.31;;;16.24;99.19
12471;BME280;36499;46.484;13.832;2023-09-19T04:14:48;92952.63;;;16.18;98.78
12471;BME280;36499;46.484;13.832;2023-09-19T04:17:16;92956.03;;;16.18;98.47
12471;BME280;36499;46.484;13.832;2023-09-19T04:19:45;92961.31;;;16.18;98.73
12471;BME280;36499;46.484;13.832;2023-09-19T04:22:12;92967.13;;;16.20;98.75
12471;BME280;36499;46.484;13.832;2023-09-19T04:24:39;92959.97;;;16.16;98.34
12471;BME280;36499;46.484;13.832;2023-09-19T04:27:06;92962.03;;;16.14;98.43
12471;BME280;36499;46.484;13.832;2023-09-19T04:29:35;92957.06;;;16.12;98.13
12471;BME280;36499;46.484;13.832;2023-09-19T04:32:04;92960.13;;;16.04;98.32
12471;BME280;36499;46.484;13.832;2023-09-19T04:34:31;92959.84;;;16.01;98.30
12471;BME280;36499;46.484;13.832;2023-09-19T04:37:01;92962.09;;;15.92;98.42
12471;BME280;36499;46.484;13.832;2023-09-19T04:39:29;92988.00;;;15.78;99.62
12471;BME280;36499;46.484;13.832;2023-09-19T04:41:56;92986.66;;;15.54;100.00
12471;BME280;36499;46.484;13.832;2023-09-19T04:44:24;92992.88;;;15.48;100.00
12471;BME280;36499;46.484;13.832;2023-09-19T04:46:51;92989.00;;;15.51;100.00
12471;BME280;36499;46.484;13.832;2023-09-19T04:49:18;92994.06;;;15.57;100.00
12471;BME280;36499;46.484;13.832;2023-09-19T04:51:45;92994.00;;;15.52;99.38
12471;BME280;36499;46.484;13.832;2023-09-19T04:54:14;92991.84;;;15.49;98.33
12471;BME280;36499;46.484;13.832;2023-09-19T04:56:41;92992.53;;;15.45;98.64
12471;BME280;36499;46.484;13.832;2023-09-19T04:59:08;93002.44;;;15.54;98.73
12471;BME280;36499;46.484;13.832;2023-09-19T05:01:36;93005.22;;;15.48;99.42
12471;BME280;36499;46.484;13.832;2023-09-19T05:04:04;93002.03;;;15.46;99.27
12471;BME280;36499;46.484;13.832;2023-09-19T05:06:31;93009.84;;;15.41;100.00
12471;BME280;36499;46.484;13.832;2023-09-19T05:09:01;93005.94;;;15.43;100.00
12471;BME280;36499;46.484;13.832;2023-09-19T05:11:32;93003.84;;;15.45;100.00
12471;BME280;36499;46.484;13.832;2023-09-19T05:13:59;93021.78;;;15.48;99.63
12471;BME280;36499;46.484;13.832;2023-09-19T05:16:29;93026.47;;;15.46;98.97
12471;BME280;36499;46.484;13.832;2023-09-19T05:18:57;93027.03;;;15.48;99.68
12471;BME280;36499;46.484;13.832;2023-09-19T05:21:25;93028.56;;;15.44;98.51
12471;BME280;36499;46.484;13.832;2023-09-19T05:23:54;93021.94;;;15.42;98.60
12471;BME280;36499;46.484;13.832;2023-09-19T05:26:22;93024.25;;;15.38;99.22
12471;BME280;36499;46.484;13.832;2023-09-19T05:28:50;93025.06;;;15.38;99.40
12471;BME280;36499;46.484;13.832;2023-09-19T05:31:18;93023.75;;;15.41;99.08
12471;BME280;36499;46.484;13.832;2023-09-19T05:33:46;93019.91;;;15.49;100.00
12471;BME280;36499;46.484;13.832;2023-09-19T05:36:13;93022.50;;;15.44;97.41
12471;BME280;36499;46.484;13.832;2023-09-19T05:38:42;93024.25;;;15.38;97.19
12471;BME280;36499;46.484;13.832;2023-09-19T05:41:10;93027.59;;;15.33;96.93
12471;BME280;36499;46.484;13.832;2023-09-19T05:43:39;93030.22;;;15.33;97.16
12471;BME280;36499;46.484;13.832;2023-09-19T05:46:08;93032.56;;;15.30;97.07
12471;BME280;36499;46.484;13.832;2023-09-19T05:48:35;93034.31;;;15.24;98.30
12471;BME280;36499;46.484;13.832;2023-09-19T05:51:02;93028.91;;;15.31;98.36
12471;BME280;36499;46.484;13.832;2023-09-19T05:53:29;93028.00;;;15.42;98.91
12471;BME280;36499;46.484;13.832;2023-09-19T05:55:56;93027.38;;;15.52;99.42
12471;BME280;36499;46.484;13.832;2023-09-19T05:58:26;93033.16;;;15.54;100.00
12471;BME280;36499;46.484;13.832;2023-09-19T06:00:53;93030.31;;;15.55;100.00
12471;BME280;36499;46.484;13.832;2023-09-19T06:03:22;93029.75;;;15.75;100.00
12471;BME280;36499;46.484;13.832;2023-09-19T06:05:49;93027.13;;;15.75;100.00
12471;BME280;36499;46.484;13.832;2023-09-19T06:08:18;93036.25;;;15.94;100.00
12471;BME280;36499;46.484;13.832;2023-09-19T06:10:46;93026.84;;;15.98;99.35
12471;BME280;36499;46.484;13.832;2023-09-19T06:13:14;93019.53;;;16.00;98.17
12471;BME280;36499;46.484;13.832;2023-09-19T06:15:41;93021.84;;;15.97;97.30
12471;BME280;36499;46.484;13.832;2023-09-19T06:18:11;93029.53;;;16.03;97.72
12471;BME280;36499;46.484;13.832;2023-09-19T06:20:42;93031.50;;;16.13;98.05
12471;BME280;36499;46.484;13.832;2023-09-19T06:23:10;93040.00;;;16.25;98.29
12471;BME280;36499;46.484;13.832;2023-09-19T06:25:37;93047.38;;;16.23;97.71
12471;BME280;36499;46.484;13.832;2023-09-19T06:28:05;93053.00;;;16.31;98.47
12471;BME280;36499;46.484;13.832;2023-09-19T06:30:34;93054.31;;;16.34;98.03
12471;BME280;36499;46.484;13.832;2023-09-19T06:33:01;93063.03;;;16.35;96.55
12471;BME280;36499;46.484;13.832;2023-09-19T06:35:34;93064.16;;;16.44;97.30
12471;BME280;36499;46.484;13.832;2023-09-19T06:38:04;93066.84;;;16.49;96.77
12471;BME280;36499;46.484;13.832;2023-09-19T06:40:31;93075.28;;;16.51;96.15
12471;BME280;36499;46.484;13.832;2023-09-19T06:43:00;93067.63;;;16.49;95.88
12471;BME280;36499;46.484;13.832;2023-09-19T06:45:29;93058.41;;;16.47;95.31
12471;BME280;36499;46.484;13.832;2023-09-19T06:47:57;93073.19;;;16.53;94.81
12471;BME280;36499;46.484;13.832;2023-09-19T06:50:26;93063.47;;;16.53;94.94
12471;BME280;36499;46.484;13.832;2023-09-19T06:52:55;93074.00;;;16.53;95.35
12471;BME280;36499;46.484;13.832;2023-09-19T06:55:24;93079.06;;;16.60;95.31
12471;BME280;36499;46.484;13.832;2023-09-19T06:57:54;93076.72;;;16.58;95.64
12471;BME280;36499;46.484;13.832;2023-09-19T07:00:21;93083.66;;;16.69;95.69
12471;BME280;36499;46.484;13.832;2023-09-19T07:02:56;93086.13;;;16.81;95.67
12471;BME280;36499;46.484;13.832;2023-09-19T07:05:24;93090.09;;;16.84;96.45
12471;BME280;36499;46.484;13.832;2023-09-19T07:07:53;93090.22;;;16.99;95.94
12471;BME280;36499;46.484;13.832;2023-09-19T07:10:21;93087.63;;;17.04;95.95
12471;BME280;36499;46.484;13.832;2023-09-19T07:12:56;93097.38;;;17.03;94.83
12471;BME280;36499;46.484;13.832;2023-09-19T07:15:23;93103.50;;;17.14;94.45
12471;BME280;36499;46.484;13.832;2023-09-19T07:17:51;93101.09;;;17.07;94.48
12471;BME280;36499;46.484;13.832;2023-09-19T07:20:19;93101.56;;;16.99;94.14
12471;BME280;36499;46.484;13.832;2023-09-19T07:22:46;93103.38;;;16.99;94.38
12471;BME280;36499;46.484;13.832;2023-09-19T07:25:14;93112.00;;;16.89;94.15
12471;BME280;36499;46.484;13.832;2023-09-19T07:27:42;93106.41;;;16.81;94.05
12471;BME280;36499;46.484;13.832;2023-09-19T07:30:13;93124.50;;;17.04;93.59
12471;BME280;36499;46.484;13.832;2023-09-19T07:32:40;93123.75;;;17.08;93.38
12471;BME280;36499;46.484;13.832;2023-09-19T07:35:08;93126.03;;;17.26;94.09
12471;BME280;36499;46.484;13.832;2023-09-19T07:37:35;93128.97;;;17.35;93.11
12471;BME280;36499;46.484;13.832;2023-09-19T07:40:03;93124.31;;;17.47;92.97
12471;BME280;36499;46.484;13.832;2023-09-19T07:42:33;93124.44;;;17.57;91.80
12471;BME280;36499;46.484;13.832;2023-09-19T07:45:01;93130.38;;;17.48;91.84
12471;BME280;36499;46.484;13.832;2023-09-19T07:47:30;93128.78;;;17.47;92.33
12471;BME280;36499;46.484;13.832;2023-09-19T07:49:58;93128.25;;;17.45;92.10
12471;BME280;36499;46.484;13.832;2023-09-19T07:52:27;93125.84;;;17.38;92.80
12471;BME280;36499;46.484;13.832;2023-09-19T07:54:55;93128.00;;;17.46;93.00
12471;BME280;36499;46.484;13.832;2023-09-19T07:57:23;93137.75;;;17.46;93.61
12471;BME280;36499;46.484;13.832;2023-09-19T07:59:50;93132.09;;;17.64;93.13
12471;BME280;36499;46.484;13.832;2023-09-19T08:02:17;93134.16;;;17.99;93.51
12471;BME280;36499;46.484;13.832;2023-09-19T08:04:46;93130.34;;;18.32;93.11
12471;BME280;36499;46.484;13.832;2023-09-19T08:07:13;93130.16;;;18.53;90.51
12471;BME280;36499;46.484;13.832;2023-09-19T08:09:40;93135.72;;;18.57;89.42
12471;BME280;36499;46.484;13.832;2023-09-19T08:12:08;93137.34;;;18.68;87.83
12471;BME280;36499;46.484;13.832;2023-09-19T08:14:36;93137.41;;;19.03;88.77
12471;BME280;36499;46.484;13.832;2023-09-19T08:17:03;93143.25;;;19.31;85.58
12471;BME280;36499;46.484;13.832;2023-09-19T08:19:31;93129.25;;;19.71;87.16
12471;BME280;36499;46.484;13.832;2023-09-19T08:22:00;93130.50;;;19.98;83.69
12471;BME280;36499;46.484;13.832;2023-09-19T08:24:29;93132.28;;;20.23;82.02
12471;BME280;36499;46.484;13.832;2023-09-19T08:26:57;93128.28;;;20.41;81.01
12471;BME280;36499;46.484;13.832;2023-09-19T08:29:25;93131.47;;;20.38;78.86
12471;BME280;36499;46.484;13.832;2023-09-19T08:31:54;93124.28;;;20.43;79.85
12471;BME280;36499;46.484;13.832;2023-09-19T08:34:22;93130.06;;;20.55;81.55
12471;BME280;36499;46.484;13.832;2023-09-19T08:36:50;93128.09;;;20.76;79.09
12471;BME280;36499;46.484;13.832;2023-09-19T08:39:19;93125.81;;;21.03;79.55
12471;BME280;36499;46.484;13.832;2023-09-19T08:41:46;93126.81;;;21.18;72.38
12471;BME280;36499;46.484;13.832;2023-09-19T08:44:13;93126.72;;;21.28;72.50
12471;BME280;36499;46.484;13.832;2023-09-19T08:46:43;93127.16;;;21.40;72.93
12471;BME280;36499;46.484;13.832;2023-09-19T08:49:21;93133.38;;;21.59;74.49
12471;BME280;36499;46.484;13.832;2023-09-19T08:52:03;93124.72;;;21.77;73.12
12471;BME280;36499;46.484;13.832;2023-09-19T08:54:38;93134.84;;;22.04;75.56
12471;BME280;36499;46.484;13.832;2023-09-19T08:57:08;93131.66;;;22.26;74.32
12471;BME280;36499;46.484;13.832;2023-09-19T08:59:38;93131.84;;;22.34;70.06
12471;BME280;36499;46.484;13.832;2023-09-19T09:02:11;93126.44;;;22.44;69.33
12471;BME280;36499;46.484;13.832;2023-09-19T09:04:40;93133.13;;;22.61;69.09
12471;BME280;36499;46.484;13.832;2023-09-19T09:07:11;93139.00;;;22.81;67.90
12471;BME280;36499;46.484;13.832;2023-09-19T09:09:40;93136.09;;;23.02;67.26
12471;BME280;36499;46.484;13.832;2023-09-19T09:12:11;93131.19;;;23.27;68.92
12471;BME280;36499;46.484;13.832;2023-09-19T09:14:39;93130.00;;;23.33;62.23
12471;BME280;36499;46.484;13.832;2023-09-19T09:17:07;93130.69;;;23.44;62.90
12471;BME280;36499;46.484;13.832;2023-09-19T09:19:34;93138.59;;;23.49;65.01
12471;BME280;36499;46.484;13.832;2023-09-19T09:22:07;93127.34;;;23.52;64.73
12471;BME280;36499;46.484;13.832;2023-09-19T09:24:35;93132.03;;;23.60;64.65
12471;BME280;36499;46.484;13.832;2023-09-19T09:27:06;93125.88;;;23.46;67.71
12471;BME280;36499;46.484;13.832;2023-09-19T09:29:44;93127.09;;;23.67;64.82
12471;BME280;36499;46.484;13.832;2023-09-19T09:32:20;93118.66;;;23.79;64.71
12471;BME280;36499;46.484;13.832;2023-09-19T09:34:50;93111.78;;;23.92;66.65
12471;BME280;36499;46.484;13.832;2023-09-19T09:37:18;93112.69;;;24.01;63.62
12471;BME280;36499;46.484;13.832;2023-09-19T09:39:51;93113.25;;;23.98;63.73
12471;BME280;36499;46.484;13.832;2023-09-19T09:42:36;93119.78;;;23.92;64.07
12471;BME280;36499;46.484;13.832;2023-09-19T09:45:23;93110.91;;;23.96;62.20
12471;BME280;36499;46.484;13.832;2023-09-19T09:48:04;93116.50;;;23.81;64.42
12471;BME280;36499;46.484;13.832;2023-09-19T09:50:47;93110.50;;;23.89;62.50
12471;BME280;36499;46.484;13.832;2023-09-19T09:53:22;93118.13;;;24.09;61.93
12471;BME280;36499;46.484;13.832;2023-09-19T09:56:01;93118.75;;;24.20;61.79
12471;BME280;36499;46.484;13.832;2023-09-19T09:58:33;93128.81;;;24.23;62.10
12471;BME280;36499;46.484;13.832;2023-09-19T10:01:02;93128.44;;;24.16;61.60
12471;BME280;36499;46.484;13.832;2023-09-19T10:03:36;93126.69;;;23.93;62.82
12471;BME280;36499;46.484;13.832;2023-09-19T10:06:09;93119.50;;;23.93;62.57
12471;BME280;36499;46.484;13.832;2023-09-19T10:09:02;93116.25;;;23.96;64.23
12471;BME280;36499;46.484;13.832;2023-09-19T10:11:31;93131.31;;;23.87;62.20
12471;BME280;36499;46.484;13.832;2023-09-19T10:14:02;93130.47;;;23.73;62.33
12471;BME280;36499;46.484;13.832;2023-09-19T10:16:34;93128.22;;;23.66;65.78
12471;BME280;36499;46.484;13.832;2023-09-19T10:19:05;93135.28;;;23.71;65.31
12471;BME280;36499;46.484;13.832;2023-09-19T10:21:36;93137.47;;;23.69;66.40
12471;BME280;36499;46.484;13.832;2023-09-19T10:24:05;93134.41;;;23.62;65.53
12471;BME280;36499;46.484;13.832;2023-09-19T10:26:36;93134.19;;;23.58;63.30
12471;BME280;36499;46.484;13.832;2023-09-19T10:29:08;93136.44;;;23.51;64.70
12471;BME280;36499;46.484;13.832;2023-09-19T10:31:38;93120.75;;;23.31;65.04
12471;BME280;36499;46.484;13.832;2023-09-19T10:34:14;93134.94;;;23.45;64.20
12471;BME280;36499;46.484;13.832;2023-09-19T10:36:45;93132.56;;;23.44;64.64
12471;BME280;36499;46.484;13.832;2023-09-19T10:39:16;93129.91;;;23.44;63.97
12471;BME280;36499;46.484;13.832;2023-09-19T10:41:51;93128.09;;;23.39;63.75
12471;BME280;36499;46.484;13.832;2023-09-19T10:44:24;93130.13;;;23.47;63.01
12471;BME280;36499;46.484;13.832;2023-09-19T10:46:52;93127.53;;;23.42;61.98
12471;BME280;36499;46.484;13.832;2023-09-19T10:49:20;93131.78;;;23.43;62.77
12471;BME280;36499;46.484;13.832;2023-09-19T10:51:52;93127.44;;;23.28;61.43
12471;BME280;36499;46.484;13.832;2023-09-19T10:54:26;93134.66;;;23.47;61.78
12471;BME280;36499;46.484;13.832;2023-09-19T10:56:54;93140.41;;;23.67;60.84
12471;BME280;36499;46.484;13.832;2023-09-19T10:59:26;93132.69;;;23.84;61.68
12471;BME280;36499;46.484;13.832;2023-09-19T11:02:15;93121.88;;;24.08;61.96
12471;BME280;36499;46.484;13.832;2023-09-19T11:04:44;93130.31;;;23.83;58.74
12471;BME280;36499;46.484;13.832;2023-09-19T11:07:15;93139.94;;;23.65;59.67
12471;BME280;36499;46.484;13.832;2023-09-19T11:09:50;93137.28;;;23.79;60.29
12471;BME280;36499;46.484;13.832;2023-09-19T11:12:54;93133.00;;;23.97;60.11
12471;BME280;36499;46.484;13.832;2023-09-19T11:16:19;93122.69;;;23.76;61.31
12471;BME280;36499;46.484;13.832;2023-09-19T11:18:56;93132.94;;;23.69;60.37
12471;BME280;36499;46.484;13.832;2023-09-19T11:21:52;93118.19;;;23.90;59.73
12471;BME280;36499;46.484;13.832;2023-09-19T11:24:29;93120.47;;;23.97;59.59
12471;BME280;36499;46.484;13.832;2023-09-19T11:27:14;93121.44;;;23.87;59.77
12471;BME280;36499;46.484;13.832;2023-09-19T11:29:44;93125.25;;;24.27;59.06
12471;BME280;36499;46.484;13.832;2023-09-19T11:32:12;93122.38;;;24.10;58.60
12471;BME280;36499;46.484;13.832;2023-09-19T11:34:47;93123.50;;;24.23;58.58
12471;BME280;36499;46.484;13.832;2023-09-19T11:38:00;93115.91;;;24.30;57.02
12471;BME280;36499;46.484;13.832;2023-09-19T11:40:45;93110.66;;;24.25;56.88
12471;BME280;36499;46.484;13.832;2023-09-19T11:43:38;93123.69;;;24.54;57.15
12471;BME280;36499;46.484;13.832;2023-09-19T11:46:07;93109.56;;;24.53;57.47
12471;BME280;36499;46.484;13.832;2023-09-19T11:48:35;93111.25;;;24.49;55.31
12471;BME280;36499;46.484;13.832;2023-09-19T11:51:15;93118.94;;;24.51;53.64
12471;BME280;36499;46.484;13.832;2023-09-19T11:53:46;93108.00;;;24.52;53.98
12471;BME280;36499;46.484;13.832;2023-09-19T11:56:18;93111.03;;;24.59;55.52
12471;BME280;36499;46.484;13.832;2023-09-19T11:58:46;93108.75;;;24.66;54.16
12471;BME280;36499;46.484;13.832;2023-09-19T12:01:23;93103.31;;;24.71;55.59
12471;BME280;36499;46.484;13.832;2023-09-19T12:03:56;93098.78;;;24.72;56.19
12471;BME280;36499;46.484;13.832;2023-09-19T12:06:24;93111.03;;;24.73;55.09
12471;BME280;36499;46.484;13.832;2023-09-19T12:08:53;93106.78;;;24.72;55.42
12471;BME280;36499;46.484;13.832;2023-09-19T12:11:23;93101.78;;;24.57;56.49
12471;BME280;36499;46.484;13.832;2023-09-19T12:13:50;93103.81;;;24.73;56.17
12471;BME280;36499;46.484;13.832;2023-09-19T12:16:20;93107.97;;;24.79;55.67
12471;BME280;36499;46.484;13.832;2023-09-19T12:18:50;93099.00;;;24.48;55.58
12471;BME280;36499;46.484;13.832;2023-09-19T12:21:27;93103.44;;;24.53;56.49
12471;BME280;36499;46.484;13.832;2023-09-19T12:24:15;93096.94;;;24.45;56.51
12471;BME280;36499;46.484;13.832;2023-09-19T12:26:46;93098.03;;;24.58;55.52
12471;BME280;36499;46.484;13.832;2023-09-19T12:29:19;93098.59;;;24.68;56.01
12471;BME280;36499;46.484;13.832;2023-09-19T12:31:54;93106.97;;;24.75;55.41
12471;BME280;36499;46.484;13.832;2023-09-19T12:34:25;93112.59;;;24.74;56.47
12471;BME280;36499;46.484;13.832;2023-09-19T12:37:11;93105.59;;;24.92;56.09
12471;BME280;36499;46.484;13.832;2023-09-19T12:39:40;93110.03;;;24.82;54.32
12471;BME280;36499;46.484;13.832;2023-09-19T12:42:16;93113.91;;;24.76;55.40
12471;BME280;36499;46.484;13.832;2023-09-19T12:44:45;93105.97;;;24.99;56.36
12471;BME280;36499;46.484;13.832;2023-09-19T12:47:15;93104.81;;;24.91;54.20
12471;BME280;36499;46.484;13.832;2023-09-19T12:50:12;93102.53;;;24.84;53.88
12471;BME280;36499;46.484;13.832;2023-09-19T12:52:44;93109.06;;;24.65;53.91
12471;BME280;36499;46.484;13.832;2023-09-19T12:55:24;93112.00;;;24.77;53.80
12471;BME280;36499;46.484;13.832;2023-09-19T12:58:12;93106.69;;;24.91;54.73
12471;BME280;36499;46.484;13.832;2023-09-19T13:00:43;93104.69;;;24.82;55.31
12471;BME280;36499;46.484;13.832;2023-09-19T13:03:16;93105.41;;;24.88;56.69
12471;BME280;36499;46.484;13.832;2023-09-19T13:05:53;93109.78;;;24.57;55.85
12471;BME280;36499;46.484;13.832;2023-09-19T13:08:27;93100.69;;;24.30;56.46